Albion, NE

10:32 PM CDT on August 23, 2016 (GMT -0500)
Albion Municipal | | Change Station

Elev 1804 ft 41.73 °N, 98.06 °W | Updated 17 minutes ago

Scattered Clouds
Scattered Clouds
76 °F
Feels Like 76 °F
N
4
Wind Variable Wind from North

Today
High -- | Low -- °F
--% Chance of Precip.
Yesterday
High -- | Low -- °F
Precip. -- in
Pressure 29.87 in
Visibility 10.0 miles
Clouds Scattered Clouds 7500 ft
Dew Point 67 °F
Humidity 74%
Rainfall 3.49 in
Snow Depth Not available.
6:49 AM 8:19 PM
Waning Gibbous, 61% visible
METAR KBVN 240315Z AUTO 36003KT 10SM SCT075 25/20 A2987 RMK AO2 T02460196
Pressure 29.87 in
Visibility 10.0 miles
Clouds Scattered Clouds 7500 ft
Dew Point 67 °F
Humidity 74%
Rainfall 3.49 in
Snow Depth Not available.
6:49 AM 8:19 PM
Waning Gibbous, 61% visible
METAR KBVN 240315Z AUTO 36003KT 10SM SCT075 25/20 A2987 RMK AO2 T02460196

10-Day Weather Forecast

Almanac

Astronomy

Aug. 23, 2016 Rise Set
Actual Time
Civil Twilight
Nautical Twilight
Astronomical Twilight
Moon
Length of Visible Light
Length of Day
Tomorrow will be .
, % of the Moon is Illuminated

Today's Extremes

State Highs State Lows

Community

WunderPhotos

Upload Photos

1,934,540 photos uploaded!

WunderBlog® & News

Nearby

Air Quality

  Air Quality AQ Index Pollutant
Not available.

Snow Depth

Station Depth Elevation

Earthquake Activity

City Distance Mag. Time & Date
Minimum magnitude displayed is 2.5.

Coastal Water Temperatures

Place Temperature

Stations

Nearby Weather Stations

Station Location Temp. Windchill Dew Point Humidity Wind Precip. Elev Updated Type
                   

Watches & Warnings

There are currently no watches in effect.